Time;durP1;ratioP1;P1;durP2;ratioP2;P2;SDS_P1;SDS_P2;PMS_P1;PMS_P2;Temp;Humidity;BMP_temperature;BMP_pressure;BME280_temperature;BME280_humidity;BME280_pressure;Samples;Min_cycle;Max_cycle;Signal;HPM_P1;HPM_P2
2022/05/12 00:02:08;;;;;;;;;;;12.20;99.90;;;;;;5092502;28;19927;-65
2022/05/12 00:04:34;;;;;;;;;;;12.20;99.90;;;;;;5092654;28;20364;-66
2022/05/12 00:06:59;;;;;;;;;;;12.20;99.90;;;;;;5092389;28;19950;-65
2022/05/12 00:09:25;;;;;;;;;;;12.20;99.90;;;;;;5092621;28;19983;-65
2022/05/12 00:11:51;;;;;;;;;;;12.20;99.90;;;;;;5092235;28;19967;-65
2022/05/12 00:14:17;;;;;;;;;;;12.10;99.90;;;;;;5092244;28;19964;-65
2022/05/12 00:16:43;;;;;;;;;;;12.00;99.90;;;;;;5092144;28;19928;-66
2022/05/12 00:19:08;;;;;;;;;;;12.00;99.90;;;;;;5092700;28;19927;-66
2022/05/12 00:21:34;;;;;;;;;;;11.80;99.90;;;;;;5090727;28;19919;-65
2022/05/12 00:23:59;;;;;;;;;;;11.80;99.90;;;;;;5092466;28;19920;-65
2022/05/12 00:26:26;;;;;;;;;;;11.90;99.90;;;;;;5092457;28;20381;-66
2022/05/12 00:28:52;;;;;;;;;;;11.80;99.90;;;;;;5092215;28;19920;-65
2022/05/12 00:31:18;;;;;;;;;;;11.80;99.90;;;;;;5092612;28;19942;-64
2022/05/12 00:33:44;;;;;;;;;;;11.70;99.90;;;;;;5092122;28;19924;-65
2022/05/12 00:36:09;;;;;;;;;;;11.60;99.90;;;;;;5092420;28;19932;-64
2022/05/12 00:38:35;;;;;;;;;;;11.70;99.90;;;;;;5092357;28;19928;-65
2022/05/12 00:41:00;;;;;;;;;;;11.60;99.90;;;;;;5092818;28;20002;-65
2022/05/12 00:43:32;;;;;;;;;;;11.50;99.90;;;;;;5092432;28;20365;-64
2022/05/12 00:45:57;;;;;;;;;;;11.50;99.90;;;;;;5090180;28;19932;-61
2022/05/12 00:48:23;;;;;;;;;;;11.50;99.90;;;;;;5092841;28;19940;-60
2022/05/12 00:50:48;;;;;;;;;;;11.50;99.90;;;;;;5090213;28;19920;-60
2022/05/12 00:53:15;;;;;;;;;;;11.40;99.90;;;;;;5090434;28;19920;-60
2022/05/12 00:55:41;;;;;;;;;;;11.40;99.90;;;;;;5091048;28;19971;-60
2022/05/12 00:58:10;;;;;;;;;;;11.30;99.90;;;;;;5093168;28;19934;-60
2022/05/12 01:00:37;;;;;;;;;;;11.30;99.90;;;;;;5092972;28;19920;-61
2022/05/12 01:03:07;;;;;;;;;;;11.20;99.90;;;;;;5095439;28;19974;-60
2022/05/12 01:05:33;;;;;;;;;;;11.10;99.90;;;;;;5077693;28;20318;-60
2022/05/12 01:07:58;;;;;;;;;;;11.10;99.90;;;;;;5095708;28;19927;-60
2022/05/12 01:10:25;;;;;;;;;;;11.10;99.90;;;;;;5095365;28;19927;-60
2022/05/12 01:12:51;;;;;;;;;;;11.10;99.90;;;;;;5095555;28;19924;-60
2022/05/12 01:15:18;;;;;;;;;;;11.00;99.90;;;;;;5095163;28;19927;-60
2022/05/12 01:17:44;;;;;;;;;;;11.00;99.90;;;;;;5095392;28;20022;-61
2022/05/12 01:20:11;;;;;;;;;;;11.00;99.90;;;;;;5095398;28;19963;-61
2022/05/12 01:22:39;;;;;;;;;;;11.00;99.90;;;;;;5095047;28;19974;-60
2022/05/12 01:25:10;;;;;;;;;;;11.00;99.90;;;;;;5095195;28;19920;-61
2022/05/12 01:27:35;;;;;;;;;;;11.00;99.90;;;;;;5095489;28;19966;-61
2022/05/12 01:30:01;;;;;;;;;;;10.90;99.90;;;;;;5060909;28;20724;-60
2022/05/12 01:32:28;;;;;;;;;;;11.00;99.90;;;;;;5077381;28;19921;-61
2022/05/12 01:34:54;;;;;;;;;;;10.90;99.90;;;;;;5095084;28;19931;-61
2022/05/12 01:37:20;;;;;;;;;;;10.70;99.90;;;;;;5095082;28;19924;-61
2022/05/12 01:39:46;;;;;;;;;;;10.80;99.90;;;;;;5094872;28;19927;-62
2022/05/12 01:42:12;;;;;;;;;;;10.80;99.90;;;;;;5095284;28;19920;-61
2022/05/12 01:44:38;;;;;;;;;;;10.70;99.90;;;;;;5095100;28;19920;-61
2022/05/12 01:47:04;;;;;;;;;;;10.70;99.90;;;;;;5076687;28;19920;-61
2022/05/12 01:49:30;;;;;;;;;;;10.70;99.90;;;;;;5094872;28;19920;-61
2022/05/12 01:51:57;;;;;;;;;;;10.60;99.90;;;;;;5094252;28;19920;-61
2022/05/12 01:54:23;;;;;;;;;;;10.50;99.90;;;;;;5094488;28;19920;-61
2022/05/12 01:56:48;;;;;;;;;;;10.50;99.90;;;;;;5094532;28;20306;-61
2022/05/12 01:59:14;;;;;;;;;;;10.50;99.90;;;;;;5094630;28;19920;-61
2022/05/12 02:01:40;;;;;;;;;;;10.60;99.90;;;;;;5076267;28;20332;-61
2022/05/12 02:04:05;;;;;;;;;;;10.50;99.90;;;;;;5094399;28;19920;-61
2022/05/12 02:06:31;;;;;;;;;;;10.50;99.90;;;;;;5094411;28;19920;-61
2022/05/12 02:08:57;;;;;;;;;;;10.40;99.90;;;;;;5094016;28;19966;-61
2022/05/12 02:11:23;;;;;;;;;;;10.40;99.90;;;;;;5093763;28;19964;-61
2022/05/12 02:13:49;;;;;;;;;;;10.40;99.90;;;;;;5094117;28;20339;-60
2022/05/12 02:16:14;;;;;;;;;;;10.40;99.90;;;;;;5094247;28;19928;-60
2022/05/12 02:18:40;;;;;;;;;;;10.40;99.90;;;;;;5094222;28;19954;-61
2022/05/12 02:21:05;;;;;;;;;;;10.30;99.90;;;;;;5094205;28;19920;-61
2022/05/12 02:23:31;;;;;;;;;;;10.40;99.90;;;;;;5094503;28;20015;-61
2022/05/12 02:25:56;;;;;;;;;;;10.40;99.90;;;;;;5094400;28;20367;-61
2022/05/12 02:28:22;;;;;;;;;;;10.30;99.90;;;;;;5094113;28;19927;-61
2022/05/12 02:30:48;;;;;;;;;;;10.30;99.90;;;;;;5093910;28;19920;-61
2022/05/12 02:33:13;;;;;;;;;;;10.30;99.90;;;;;;5093695;28;19975;-61
2022/05/12 02:35:39;;;;;;;;;;;10.30;99.90;;;;;;5093578;28;20014;-61
2022/05/12 02:38:05;;;;;;;;;;;10.30;99.90;;;;;;5093580;28;19924;-60
2022/05/12 02:40:31;;;;;;;;;;;10.30;99.90;;;;;;5093841;28;20353;-60
2022/05/12 02:42:57;;;;;;;;;;;10.30;99.90;;;;;;5093842;28;19963;-61
2022/05/12 02:45:23;;;;;;;;;;;10.30;99.90;;;;;;5093584;28;20312;-61
2022/05/12 02:47:48;;;;;;;;;;;10.30;99.90;;;;;;5093768;28;19920;-61
2022/05/12 02:50:15;;;;;;;;;;;10.30;99.90;;;;;;5093624;28;19951;-60
2022/05/12 02:52:41;;;;;;;;;;;10.30;99.90;;;;;;5093476;28;19920;-61
2022/05/12 02:55:07;;;;;;;;;;;10.20;99.90;;;;;;5093516;28;20374;-61
2022/05/12 02:57:32;;;;;;;;;;;10.20;99.90;;;;;;5093829;28;19978;-61
2022/05/12 02:59:58;;;;;;;;;;;10.20;99.90;;;;;;5093692;28;19924;-60
2022/05/12 03:02:23;;;;;;;;;;;10.10;99.90;;;;;;5075290;28;19920;-60
2022/05/12 03:04:49;;;;;;;;;;;10.10;99.90;;;;;;5093530;28;19920;-60
2022/05/12 03:07:15;;;;;;;;;;;10.20;99.90;;;;;;5093283;28;19927;-60
2022/05/12 03:09:40;;;;;;;;;;;10.20;99.90;;;;;;5075030;28;19920;-61
2022/05/12 03:12:06;;;;;;;;;;;10.20;99.90;;;;;;5093275;28;19927;-61
2022/05/12 03:14:32;;;;;;;;;;;10.20;99.90;;;;;;5074746;28;19920;-61
2022/05/12 03:16:57;;;;;;;;;;;10.20;99.90;;;;;;5092856;28;19924;-60
2022/05/12 03:19:23;;;;;;;;;;;10.10;99.90;;;;;;5092978;28;19924;-60
2022/05/12 03:21:49;;;;;;;;;;;9.90;99.90;;;;;;5091805;28;19920;-61
2022/05/12 03:24:18;;;;;;;;;;;9.90;99.90;;;;;;5092856;28;19924;-60
2022/05/12 03:26:44;;;;;;;;;;;9.90;99.90;;;;;;5074615;28;20018;-61
2022/05/12 03:29:10;;;;;;;;;;;10.00;99.90;;;;;;5093229;28;20024;-61
2022/05/12 03:31:36;;;;;;;;;;;9.90;99.90;;;;;;5074632;28;19920;-61
2022/05/12 03:34:01;;;;;;;;;;;9.90;99.90;;;;;;5092798;28;19966;-60
2022/05/12 03:36:27;;;;;;;;;;;9.90;99.90;;;;;;5092339;28;19931;-61
2022/05/12 03:38:53;;;;;;;;;;;9.90;99.90;;;;;;5093147;28;19928;-60
2022/05/12 03:41:18;;;;;;;;;;;9.80;99.90;;;;;;5093174;28;19946;-61
2022/05/12 03:46:31;;;;;;;;;;;9.80;99.90;;;;;;5092927;28;19920;-60
2022/05/12 03:48:57;;;;;;;;;;;9.80;99.90;;;;;;5092615;28;19920;-60
2022/05/12 03:51:23;;;;;;;;;;;9.70;99.90;;;;;;5092889;28;20003;-60
2022/05/12 03:53:48;;;;;;;;;;;9.80;99.90;;;;;;5074775;28;20010;-60
2022/05/12 03:56:14;;;;;;;;;;;9.80;99.90;;;;;;5092488;28;19920;-60
2022/05/12 03:58:39;;;;;;;;;;;9.80;99.90;;;;;;5074635;28;19982;-61
2022/05/12 04:01:05;;;;;;;;;;;9.90;99.90;;;;;;5057227;28;20295;-60
2022/05/12 04:03:31;;;;;;;;;;;9.80;99.90;;;;;;5092545;28;19920;-60
2022/05/12 04:05:59;;;;;;;;;;;9.80;99.90;;;;;;5074658;28;20385;-60
2022/05/12 04:08:25;;;;;;;;;;;9.80;99.90;;;;;;5092754;28;19920;-60
2022/05/12 04:10:51;;;;;;;;;;;9.80;99.90;;;;;;5093359;28;19934;-63
2022/05/12 04:13:16;;;;;;;;;;;9.80;99.90;;;;;;5093449;28;20378;-63
2022/05/12 04:15:42;;;;;;;;;;;9.80;99.90;;;;;;5075384;28;20144;-63
2022/05/12 04:18:08;;;;;;;;;;;9.80;99.90;;;;;;5093737;28;20278;-63
2022/05/12 04:20:34;;;;;;;;;;;9.80;99.90;;;;;;5093844;28;19920;-63
2022/05/12 04:23:00;;;;;;;;;;;9.90;99.90;;;;;;5092885;28;20267;-61
2022/05/12 04:25:26;;;;;;;;;;;9.90;99.90;;;;;;5092220;28;19920;-60
2022/05/12 04:27:52;;;;;;;;;;;9.90;99.90;;;;;;5092325;28;19923;-60
2022/05/12 04:30:18;;;;;;;;;;;10.00;99.90;;;;;;5074338;28;20003;-60
2022/05/12 04:32:44;;;;;;;;;;;10.00;99.90;;;;;;5093138;28;20700;-60
2022/05/12 04:35:14;;;;;;;;;;;10.10;99.90;;;;;;5096110;28;19971;-60
2022/05/12 04:37:41;;;;;;;;;;;10.10;99.90;;;;;;5096057;28;19990;-60
2022/05/12 04:40:08;;;;;;;;;;;10.10;99.90;;;;;;5096037;28;19946;-60
2022/05/12 04:42:34;;;;;;;;;;;10.10;99.90;;;;;;5096466;28;19924;-60
2022/05/12 04:44:59;;;;;;;;;;;10.10;99.90;;;;;;5096615;28;19931;-61
2022/05/12 04:47:25;;;;;;;;;;;10.20;99.90;;;;;;5096778;28;20681;-64
2022/05/12 04:49:50;;;;;;;;;;;10.20;99.90;;;;;;5096582;28;19920;-63
2022/05/12 04:52:16;;;;;;;;;;;10.30;99.90;;;;;;5096677;28;19966;-64
2022/05/12 04:54:42;;;;;;;;;;;10.20;99.90;;;;;;5096504;28;19921;-64
2022/05/12 04:57:07;;;;;;;;;;;10.30;99.90;;;;;;5096114;28;20007;-64
2022/05/12 04:59:33;;;;;;;;;;;10.30;99.90;;;;;;5096262;28;19924;-63
2022/05/12 05:01:59;;;;;;;;;;;10.40;99.90;;;;;;5078413;28;19920;-63
2022/05/12 05:04:24;;;;;;;;;;;10.40;99.90;;;;;;5096651;28;19920;-63
2022/05/12 05:06:50;;;;;;;;;;;10.50;99.90;;;;;;5078766;28;19973;-64
2022/05/12 05:09:15;;;;;;;;;;;10.60;99.90;;;;;;5096825;28;19920;-64
2022/05/12 05:11:41;;;;;;;;;;;10.60;99.90;;;;;;5096557;28;19920;-64
2022/05/12 05:14:06;;;;;;;;;;;10.70;99.90;;;;;;5078222;28;19920;-64
2022/05/12 05:16:32;;;;;;;;;;;10.70;99.90;;;;;;5096174;28;20009;-64
2022/05/12 05:18:57;;;;;;;;;;;10.80;99.90;;;;;;5096293;28;19924;-64
2022/05/12 05:21:23;;;;;;;;;;;10.90;99.90;;;;;;5096193;28;20393;-64
2022/05/12 05:23:49;;;;;;;;;;;11.00;99.90;;;;;;5095929;28;19920;-64
2022/05/12 05:26:14;;;;;;;;;;;11.10;99.90;;;;;;5096422;28;20301;-64
2022/05/12 05:28:40;;;;;;;;;;;11.10;99.90;;;;;;5096252;28;20362;-64
2022/05/12 05:31:05;;;;;;;;;;;11.20;99.90;;;;;;5095610;28;20427;-64
2022/05/12 05:33:31;;;;;;;;;;;11.30;99.90;;;;;;5096120;28;19920;-65
2022/05/12 05:35:57;;;;;;;;;;;11.30;99.90;;;;;;5077722;28;20340;-64
2022/05/12 05:38:23;;;;;;;;;;;11.40;99.90;;;;;;5095533;28;20325;-64
2022/05/12 05:40:48;;;;;;;;;;;11.50;99.90;;;;;;5095832;28;19963;-64
2022/05/12 05:43:14;;;;;;;;;;;11.60;99.90;;;;;;5095963;28;20266;-64
2022/05/12 05:45:40;;;;;;;;;;;11.70;99.90;;;;;;5094826;28;20011;-64
2022/05/12 05:48:06;;;;;;;;;;;11.70;99.90;;;;;;5095737;28;19959;-64
2022/05/12 05:53:26;;;;;;;;;;;12.00;99.90;;;;;;5095622;28;19920;-64
2022/05/12 05:55:59;;;;;;;;;;;12.10;99.90;;;;;;5095134;28;19977;-64
2022/05/12 05:58:25;;;;;;;;;;;12.20;99.90;;;;;;5095005;28;19966;-63
2022/05/12 06:00:51;;;;;;;;;;;12.30;99.90;;;;;;5095275;28;19966;-64
2022/05/12 06:03:17;;;;;;;;;;;12.40;99.90;;;;;;5077430;28;19963;-64
2022/05/12 06:05:43;;;;;;;;;;;12.60;99.90;;;;;;5095054;28;19930;-63
2022/05/12 06:08:10;;;;;;;;;;;12.70;99.90;;;;;;5095021;28;19920;-64
2022/05/12 06:10:36;;;;;;;;;;;12.80;99.90;;;;;;5095332;28;19920;-64
2022/05/12 06:13:03;;;;;;;;;;;13.00;99.90;;;;;;5095076;28;19927;-64
2022/05/12 06:15:28;;;;;;;;;;;13.10;99.90;;;;;;5094884;28;20025;-65
2022/05/12 06:17:54;;;;;;;;;;;13.20;99.90;;;;;;5094995;28;20399;-64
2022/05/12 06:20:20;;;;;;;;;;;13.30;99.90;;;;;;5094951;28;20362;-64
2022/05/12 06:22:46;;;;;;;;;;;13.40;99.90;;;;;;5094595;28;19920;-63
2022/05/12 06:25:14;;;;;;;;;;;13.50;99.90;;;;;;5094222;28;19973;-64
2022/05/12 06:27:39;;;;;;;;;;;13.60;99.90;;;;;;5094545;28;19927;-64
2022/05/12 06:30:06;;;;;;;;;;;13.80;99.90;;;;;;5094654;28;19920;-65
2022/05/12 06:32:31;;;;;;;;;;;13.90;99.90;;;;;;5094781;28;19943;-64
2022/05/12 06:34:57;;;;;;;;;;;14.00;99.90;;;;;;5094151;28;19920;-65
2022/05/12 06:37:22;;;;;;;;;;;14.10;99.90;;;;;;5094213;28;19963;-65
2022/05/12 06:39:48;;;;;;;;;;;14.30;99.90;;;;;;5094331;28;20391;-64
2022/05/12 06:42:13;;;;;;;;;;;14.30;99.90;;;;;;5094404;28;19920;-64
2022/05/12 06:44:41;;;;;;;;;;;14.40;99.90;;;;;;5093768;28;19945;-64
2022/05/12 06:47:08;;;;;;;;;;;14.50;99.90;;;;;;5094167;28;19919;-60
2022/05/12 06:49:34;;;;;;;;;;;14.70;99.90;;;;;;5093490;28;20443;-61
2022/05/12 06:52:00;;;;;;;;;;;14.90;99.90;;;;;;5093390;28;19955;-61
2022/05/12 06:54:26;;;;;;;;;;;15.00;99.90;;;;;;5093328;28;20443;-62
2022/05/12 06:56:51;;;;;;;;;;;15.20;99.90;;;;;;5092957;28;19931;-62
2022/05/12 06:59:17;;;;;;;;;;;15.20;99.90;;;;;;5075168;28;19920;-62
2022/05/12 07:01:43;;;;;;;;;;;15.40;99.90;;;;;;5093229;28;19924;-62
2022/05/12 07:04:08;;;;;;;;;;;15.60;99.90;;;;;;5074512;28;19968;-60
2022/05/12 07:06:34;;;;;;;;;;;15.60;99.90;;;;;;5093066;28;20334;-60
2022/05/12 07:08:59;;;;;;;;;;;15.70;99.90;;;;;;5092828;28;19920;-60
2022/05/12 07:11:25;;;;;;;;;;;15.90;99.90;;;;;;5092965;28;20303;-60
2022/05/12 07:13:50;;;;;;;;;;;15.90;99.90;;;;;;5093190;28;19971;-60
2022/05/12 07:16:16;;;;;;;;;;;16.10;99.90;;;;;;5092927;28;19930;-60
2022/05/12 07:18:41;;;;;;;;;;;16.20;99.90;;;;;;5093055;28;19927;-60
2022/05/12 07:26:47;;;;;;;;;;;16.40;99.90;;;;;;5030545;28;19921;-60
2022/05/12 07:29:14;;;;;;;;;;;16.40;99.90;;;;;;5030458;28;20128;-59
2022/05/12 07:31:41;;;;;;;;;;;16.50;99.90;;;;;;5030435;28;19921;-59
2022/05/12 07:34:07;;;;;;;;;;;16.50;99.90;;;;;;5030538;28;19928;-60
2022/05/12 07:36:37;;;;;;;;;;;16.60;99.90;;;;;;5030256;28;19956;-63
2022/05/12 07:39:02;;;;;;;;;;;17.00;99.90;;;;;;5030574;28;19925;-63
2022/05/12 07:41:28;;;;;;;;;;;17.00;99.90;;;;;;5030540;28;19928;-63
2022/05/12 07:43:54;;;;;;;;;;;17.00;99.90;;;;;;5030343;28;19921;-62
2022/05/12 07:46:21;;;;;;;;;;;17.40;99.90;;;;;;5030414;28;20342;-62
2022/05/12 07:48:47;;;;;;;;;;;17.30;99.90;;;;;;5030354;28;19971;-64
2022/05/12 07:51:13;;;;;;;;;;;17.30;99.90;;;;;;5030452;28;19925;-64
2022/05/12 07:53:38;;;;;;;;;;;17.30;99.90;;;;;;5030465;28;19932;-64
2022/05/12 07:56:04;;;;;;;;;;;17.50;99.90;;;;;;5030450;28;19986;-64
2022/05/12 07:58:30;;;;;;;;;;;17.60;99.90;;;;;;5030348;28;19925;-64
2022/05/12 08:00:57;;;;;;;;;;;17.70;99.90;;;;;;5074676;28;19920;-65
2022/05/12 08:03:23;;;;;;;;;;;17.80;99.90;;;;;;5092469;28;20377;-65
2022/05/12 08:05:49;;;;;;;;;;;17.90;99.90;;;;;;5092540;28;19920;-64
2022/05/12 08:08:15;;;;;;;;;;;18.10;99.90;;;;;;5093906;28;19920;-64
2022/05/12 08:10:40;;;;;;;;;;;18.10;99.90;;;;;;5096725;28;19965;-61
2022/05/12 08:13:14;;;;;;;;;;;18.20;99.90;;;;;;5096463;28;20483;-61
2022/05/12 08:15:43;;;;;;;;;;;18.30;99.90;;;;;;5096436;28;19928;-62
2022/05/12 08:18:09;;;;;;;;;;;18.30;99.90;;;;;;5096491;28;20401;-62
2022/05/12 08:20:35;;;;;;;;;;;18.60;99.90;;;;;;5096779;28;19920;-62
2022/05/12 08:23:00;;;;;;;;;;;18.40;99.90;;;;;;5096536;28;19943;-60
2022/05/12 08:25:26;;;;;;;;;;;18.50;99.90;;;;;;5096308;28;19943;-62
2022/05/12 08:27:52;;;;;;;;;;;18.60;99.90;;;;;;5096168;28;20275;-64
2022/05/12 08:30:17;;;;;;;;;;;18.60;99.90;;;;;;5096196;28;19959;-64
2022/05/12 08:32:43;;;;;;;;;;;18.60;99.90;;;;;;5096310;28;19947;-63
2022/05/12 08:35:09;;;;;;;;;;;18.60;99.90;;;;;;5096569;28;19920;-65
2022/05/12 08:37:35;;;;;;;;;;;18.50;99.90;;;;;;5095942;28;20271;-64
2022/05/12 08:40:02;;;;;;;;;;;18.70;99.90;;;;;;5096135;28;19924;-63
2022/05/12 08:42:33;;;;;;;;;;;18.70;99.90;;;;;;5094484;28;19920;-63
2022/05/12 08:45:01;;;;;;;;;;;18.70;99.90;;;;;;5091812;28;20324;-63
2022/05/12 08:47:28;;;;;;;;;;;18.40;99.90;;;;;;5093346;28;19966;-63
2022/05/12 08:49:54;;;;;;;;;;;18.60;99.90;;;;;;5103211;28;19951;-63
2022/05/12 08:52:29;;;;;;;;;;;18.50;99.90;;;;;;5096065;28;19950;-63
2022/05/12 08:55:08;;;;;;;;;;;18.60;99.90;;;;;;5096290;28;19927;-63
2022/05/12 08:57:35;;;;;;;;;;;18.80;99.90;;;;;;5095533;28;19982;-63
2022/05/12 09:00:05;;;;;;;;;;;18.90;99.90;;;;;;5095117;28;19920;-63
2022/05/12 09:02:44;;;;;;;;;;;19.20;99.90;;;;;;5095919;28;19920;-64
2022/05/12 09:05:11;;;;;;;;;;;18.90;99.90;;;;;;5095590;28;19926;-63
2022/05/12 09:07:54;;;;;;;;;;;18.80;99.90;;;;;;5099312;28;19967;-64
2022/05/12 09:10:36;;;;;;;;;;;18.50;99.90;;;;;;5097652;28;19924;-63
2022/05/12 09:13:02;;;;;;;;;;;18.40;99.90;;;;;;5101770;28;19924;-64
2022/05/12 09:15:31;;;;;;;;;;;18.10;99.90;;;;;;5094844;28;20623;-62
2022/05/12 09:17:59;;;;;;;;;;;18.50;99.90;;;;;;5095490;28;20254;-62
2022/05/12 09:20:26;;;;;;;;;;;18.80;99.90;;;;;;5076368;28;19920;-63
2022/05/12 09:22:51;;;;;;;;;;;18.80;99.90;;;;;;5093282;28;19928;-63
2022/05/12 09:25:46;;;;;;;;;;;19.20;99.90;;;;;;5095021;28;20392;-62
2022/05/12 09:28:39;;;;;;;;;;;19.30;99.90;;;;;;5012004;28;19957;-64
2022/05/12 09:31:15;;;;;;;;;;;19.80;99.90;;;;;;5008803;28;19925;-63
2022/05/12 09:33:40;;;;;;;;;;;20.30;99.90;;;;;;5012634;28;19925;-63
2022/05/12 09:36:08;;;;;;;;;;;19.90;99.90;;;;;;5012366;28;20008;-62
2022/05/12 09:38:40;;;;;;;;;;;19.60;99.90;;;;;;4992515;28;21543;-64
2022/05/12 09:41:15;;;;;;;;;;;19.50;99.90;;;;;;4993375;28;19930;-63
2022/05/12 09:43:40;;;;;;;;;;;19.30;99.90;;;;;;4993116;28;20012;-63
2022/05/12 09:46:09;;;;;;;;;;;19.20;99.90;;;;;;5004332;28;19969;-63
2022/05/12 09:48:36;;;;;;;;;;;18.80;99.90;;;;;;5012203;28;20483;-63
2022/05/12 09:51:21;;;;;;;;;;;18.60;99.90;;;;;;5012617;28;19922;-62
2022/05/12 09:53:47;;;;;;;;;;;18.40;99.90;;;;;;5012632;28;20398;-63
2022/05/12 09:56:39;;;;;;;;;;;18.40;99.90;;;;;;5012453;28;19937;-62
2022/05/12 09:59:10;;;;;;;;;;;18.80;99.90;;;;;;5012383;28;20411;-63
2022/05/12 10:01:48;;;;;;;;;;;19.10;99.90;;;;;;5012595;28;19960;-63
2022/05/12 10:09:51;;;;;;;;;;;19.20;99.90;;;;;;5088706;28;19949;-64
2022/05/12 10:12:24;;;;;;;;;;;19.00;99.90;;;;;;5093175;28;19970;-64
2022/05/12 10:14:58;;;;;;;;;;;18.60;99.90;;;;;;5094198;28;20363;-64
2022/05/12 10:17:27;;;;;;;;;;;18.90;99.90;;;;;;5089639;28;19924;-65
2022/05/12 10:19:53;;;;;;;;;;;19.00;99.90;;;;;;5094180;28;19931;-69
2022/05/12 10:22:24;;;;;;;;;;;18.80;99.90;;;;;;5094087;28;19920;-65
2022/05/12 10:25:08;;;;;;;;;;;18.60;99.90;;;;;;5094041;28;19933;-65
2022/05/12 10:27:55;;;;;;;;;;;19.00;99.90;;;;;;5093822;28;20342;-65
2022/05/12 10:30:27;;;;;;;;;;;19.40;99.90;;;;;;5093274;28;20306;-65
2022/05/12 10:33:11;;;;;;;;;;;19.50;99.90;;;;;;5093783;28;19924;-65
2022/05/12 10:35:43;;;;;;;;;;;20.00;99.90;;;;;;5093667;28;19920;-65
2022/05/12 10:38:14;;;;;;;;;;;20.00;99.90;;;;;;5093641;28;20195;-66
2022/05/12 10:40:44;;;;;;;;;;;20.20;99.90;;;;;;5093354;28;19920;-66
2022/05/12 10:43:16;;;;;;;;;;;20.10;99.70;;;;;;5093461;28;19950;-65
2022/05/12 10:46:00;;;;;;;;;;;19.70;99.90;;;;;;5093340;28;19920;-65
2022/05/12 10:48:28;;;;;;;;;;;19.60;99.90;;;;;;5093775;28;19927;-66
2022/05/12 10:51:02;;;;;;;;;;;19.80;99.90;;;;;;5093401;28;19928;-65
2022/05/12 10:53:46;;;;;;;;;;;20.00;99.90;;;;;;5093300;28;19974;-66
2022/05/12 10:56:17;;;;;;;;;;;19.90;99.90;;;;;;5093024;28;19931;-65
2022/05/12 10:58:48;;;;;;;;;;;20.00;99.90;;;;;;5093322;28;19920;-65
2022/05/12 11:01:17;;;;;;;;;;;20.00;99.90;;;;;;5093514;28;19928;-66
2022/05/12 11:03:50;;;;;;;;;;;19.90;99.90;;;;;;5093344;28;19943;-66
2022/05/12 11:06:18;;;;;;;;;;;20.10;99.90;;;;;;5093092;28;20007;-65
2022/05/12 11:08:46;;;;;;;;;;;20.00;99.90;;;;;;5092823;28;20586;-65
2022/05/12 11:11:22;;;;;;;;;;;19.90;99.80;;;;;;5093075;28;19920;-64
2022/05/12 11:13:56;;;;;;;;;;;19.70;99.20;;;;;;5093069;28;19920;-65
2022/05/12 11:16:29;;;;;;;;;;;20.00;99.60;;;;;;5092893;28;19953;-64
2022/05/12 11:19:09;;;;;;;;;;;20.30;99.70;;;;;;5092741;28;20389;-65
2022/05/12 11:21:54;;;;;;;;;;;20.60;99.60;;;;;;5074541;28;19920;-65
2022/05/12 11:24:19;;;;;;;;;;;20.50;99.70;;;;;;5093131;28;19937;-66
2022/05/12 11:26:48;;;;;;;;;;;20.10;99.50;;;;;;5092853;28;19920;-65
2022/05/12 11:29:44;;;;;;;;;;;20.10;98.90;;;;;;5075037;28;19964;-65
2022/05/12 11:32:19;;;;;;;;;;;20.10;99.90;;;;;;5092786;28;20355;-65
2022/05/12 11:34:46;;;;;;;;;;;20.10;99.90;;;;;;5092925;28;20019;-65
2022/05/12 11:37:27;;;;;;;;;;;20.40;98.30;;;;;;5092290;28;19928;-66
2022/05/12 11:39:56;;;;;;;;;;;20.70;99.30;;;;;;5092868;28;19920;-65
2022/05/12 11:42:24;;;;;;;;;;;20.60;99.40;;;;;;5091598;28;20019;-66
2022/05/12 11:45:25;;;;;;;;;;;20.40;99.10;;;;;;5092464;28;19920;-66
2022/05/12 11:48:03;;;;;;;;;;;20.30;99.90;;;;;;5092114;28;19920;-65
2022/05/12 11:50:46;;;;;;;;;;;20.20;99.80;;;;;;5092558;28;20060;-66
2022/05/12 11:53:12;;;;;;;;;;;19.90;99.70;;;;;;5092482;28;19969;-65
2022/05/12 11:55:53;;;;;;;;;;;19.60;99.80;;;;;;5092582;28;19963;-64
2022/05/12 11:58:28;;;;;;;;;;;19.50;99.90;;;;;;5092421;28;19920;-65
2022/05/12 12:00:54;;;;;;;;;;;19.40;99.90;;;;;;5092468;28;20378;-65
2022/05/12 12:03:20;;;;;;;;;;;19.20;99.90;;;;;;5092604;28;19969;-64
2022/05/12 12:05:49;;;;;;;;;;;19.10;99.90;;;;;;5092356;28;19925;-65
2022/05/12 12:08:29;;;;;;;;;;;19.20;99.90;;;;;;5092257;28;19920;-64
2022/05/12 12:11:15;;;;;;;;;;;19.50;99.90;;;;;;5092514;28;19924;-65
2022/05/12 12:13:44;;;;;;;;;;;19.70;99.90;;;;;;5092369;28;20352;-65
2022/05/12 12:16:14;;;;;;;;;;;19.60;99.90;;;;;;5092062;28;19931;-64
2022/05/12 12:18:39;;;;;;;;;;;20.00;99.90;;;;;;5092387;28;19927;-65
2022/05/12 12:21:23;;;;;;;;;;;20.40;99.90;;;;;;5092186;28;19920;-65
2022/05/12 12:24:18;;;;;;;;;;;20.20;99.50;;;;;;5092476;28;20694;-65
2022/05/12 12:26:45;;;;;;;;;;;20.40;99.60;;;;;;5074333;28;19924;-65
2022/05/12 12:29:15;;;;;;;;;;;19.80;99.60;;;;;;5092239;28;19920;-65
2022/05/12 12:31:51;;;;;;;;;;;19.80;98.60;;;;;;5092142;28;20297;-66
2022/05/12 12:34:19;;;;;;;;;;;19.90;98.50;;;;;;5074450;28;19974;-65
2022/05/12 12:36:54;;;;;;;;;;;19.90;98.10;;;;;;5092226;28;19924;-65
2022/05/12 12:39:38;;;;;;;;;;;20.10;99.10;;;;;;5092202;28;19927;-65
2022/05/12 12:42:09;;;;;;;;;;;19.80;96.90;;;;;;5092532;28;19920;-65
2022/05/12 12:44:40;;;;;;;;;;;20.00;99.60;;;;;;5092036;28;19920;-65
2022/05/12 12:47:12;;;;;;;;;;;19.90;98.60;;;;;;5091989;28;20480;-65
2022/05/12 12:49:47;;;;;;;;;;;19.70;99.30;;;;;;5091941;28;20397;-66
2022/05/12 12:52:14;;;;;;;;;;;19.60;99.00;;;;;;5074119;28;19989;-66
2022/05/12 12:57:26;;;;;;;;;;;19.70;98.50;;;;;;5095681;28;20271;-65
2022/05/12 12:59:57;;;;;;;;;;;20.20;99.90;;;;;;5095637;28;19959;-66
2022/05/12 13:02:26;;;;;;;;;;;20.40;98.30;;;;;;5095432;28;19928;-65
2022/05/12 13:04:54;;;;;;;;;;;20.40;98.60;;;;;;5095683;28;19927;-65
2022/05/12 13:07:24;;;;;;;;;;;20.30;98.90;;;;;;5095658;28;20018;-66
2022/05/12 13:09:52;;;;;;;;;;;20.40;98.30;;;;;;5085089;28;19921;-65
2022/05/12 13:12:19;;;;;;;;;;;20.60;98.50;;;;;;5090022;28;19927;-65
2022/05/12 13:14:45;;;;;;;;;;;20.40;96.70;;;;;;5088245;28;19973;-65
2022/05/12 13:17:21;;;;;;;;;;;20.50;97.60;;;;;;5091760;28;19931;-66
2022/05/12 13:19:47;;;;;;;;;;;20.80;99.00;;;;;;5095217;28;20407;-64
2022/05/12 13:22:19;;;;;;;;;;;21.30;97.80;;;;;;5091947;28;20012;-67
2022/05/12 13:24:45;;;;;;;;;;;21.00;97.20;;;;;;5092849;28;20352;-66
2022/05/12 13:27:12;;;;;;;;;;;20.80;97.30;;;;;;5095177;28;20066;-66
2022/05/12 13:29:38;;;;;;;;;;;20.40;96.90;;;;;;5093295;28;20381;-66
2022/05/12 13:32:06;;;;;;;;;;;20.20;97.60;;;;;;5093843;28;19920;-65
2022/05/12 13:34:33;;;;;;;;;;;20.40;98.60;;;;;;5097833;28;19950;-66
2022/05/12 13:37:14;;;;;;;;;;;20.50;97.40;;;;;;5095827;28;20023;-66
2022/05/12 13:39:39;;;;;;;;;;;20.90;96.70;;;;;;5090945;28;20296;-66
2022/05/12 13:42:06;;;;;;;;;;;20.70;96.50;;;;;;5094518;28;19924;-66
2022/05/12 13:44:36;;;;;;;;;;;20.80;97.30;;;;;;5096748;28;19965;-66
2022/05/12 13:47:04;;;;;;;;;;;20.90;97.60;;;;;;5094491;28;19963;-66
2022/05/12 13:49:32;;;;;;;;;;;21.00;97.40;;;;;;5100861;28;19962;-66
2022/05/12 13:52:14;;;;;;;;;;;21.10;97.00;;;;;;5114859;28;19920;-66
2022/05/12 13:55:01;;;;;;;;;;;21.10;97.40;;;;;;5109930;28;19974;-65
2022/05/12 13:57:33;;;;;;;;;;;21.10;97.80;;;;;;5090777;28;20324;-66
2022/05/12 14:00:04;;;;;;;;;;;20.80;96.70;;;;;;5094316;28;20282;-65
2022/05/12 14:02:32;;;;;;;;;;;20.60;97.20;;;;;;5096527;28;20331;-66
2022/05/12 14:05:26;;;;;;;;;;;20.60;97.50;;;;;;5093583;28;19920;-66
2022/05/12 14:08:03;;;;;;;;;;;20.80;96.60;;;;;;5090914;28;19920;-66
2022/05/12 14:10:49;;;;;;;;;;;20.50;95.90;;;;;;5094334;28;20294;-66
2022/05/12 14:21:40;;;;;;;;;;;20.20;97.20;;;;;;5093870;28;19920;-66
2022/05/12 14:24:05;;;;;;;;;;;20.50;99.20;;;;;;5093837;28;19927;-66
2022/05/12 14:26:31;;;;;;;;;;;20.90;99.40;;;;;;5093652;28;19920;-67
2022/05/12 14:28:56;;;;;;;;;;;21.00;98.60;;;;;;5093936;28;19927;-67
2022/05/12 14:31:26;;;;;;;;;;;20.60;97.60;;;;;;5093761;28;20370;-68
2022/05/12 14:33:52;;;;;;;;;;;20.30;97.80;;;;;;5093654;28;20263;-66
2022/05/12 14:36:17;;;;;;;;;;;20.50;98.70;;;;;;5075271;28;19931;-66
2022/05/12 14:38:43;;;;;;;;;;;20.40;97.90;;;;;;5093475;28;19928;-61
2022/05/12 14:41:09;;;;;;;;;;;19.90;98.60;;;;;;5093236;28;19920;-60
2022/05/12 14:43:37;;;;;;;;;;;19.70;98.00;;;;;;5093596;28;19920;-61
2022/05/12 14:46:02;;;;;;;;;;;19.70;98.60;;;;;;5093496;28;20045;-60
2022/05/12 14:48:28;;;;;;;;;;;19.90;99.30;;;;;;5075271;28;20353;-66
2022/05/12 14:50:53;;;;;;;;;;;20.10;98.90;;;;;;5071962;28;19927;-66
2022/05/12 14:53:19;;;;;;;;;;;20.10;98.10;;;;;;5073161;28;19920;-67
2022/05/12 14:55:45;;;;;;;;;;;19.80;97.90;;;;;;5054722;28;19924;-65